To NAV CANADA Home Page Login to a new session Search on AWWS site Feedback and Comments Disclaimer Vers la page française équivalente Tips FAQ What's new on the site To the Forecasts and Observations / NOTAM section To "File a Flight Plan" website Publications and other links Update of the User's profile FIC Telephone Numbers My Weather Data Folder Route Weather Data Regional Weather Data Local Weather Data To the Forecasts and Observations / NOTAM section
Request Generated 08/22/2017 at 01:33:36 UTC . Weather information available at that time is displayed.

METAR/TAF

ABBOTSFORD/BC    

METAR CYXX 220100Z 21009KT 30SM FEW210 27/14 A3001 RMK CI1 CI TR
SLP165 DENSITY ALT 1600FT=
METAR CYXX 220000Z 20006KT 140V240 30SM FEW120 FEW220 28/13 A3003 RMK
AC1CI1 AC TR CI TR SLP171 DENSITY ALT 1600FT=
METAR CYXX 212300Z 23004KT 150V280 30SM FEW120 FEW210 28/12 A3006 RMK
AC1CI1 AC TR CI TR SLP179 DENSITY ALT 1600FT=

TAF CYXX 212338Z 2200/2224 24005KT P6SM FEW120 SCT210
FM220900 VRB03KT P6SM SKC PROB30 2210/2215 1/2SM FG
FM222100 22008KT P6SM FEW160
RMK NXT FCST BY 220600Z=
Your time UTC time
Weather data provided by Environment Canada and NAV CANADA